createdAt,value
2018-06-25T00:00:08.252Z,98802.43
2018-06-25T00:02:37.656Z,98796.64
2018-06-25T00:05:07.110Z,98796.86
2018-06-25T00:07:36.536Z,98800.10
2018-06-25T00:10:05.980Z,98791.56
2018-06-25T00:12:35.412Z,98791.06
2018-06-25T00:15:04.972Z,98794.42
2018-06-25T00:17:34.359Z,98794.33
2018-06-25T00:20:03.801Z,98795.24
2018-06-25T00:22:33.221Z,98788.34
2018-06-25T00:25:02.649Z,98787.30
2018-06-25T00:27:32.122Z,98788.52
2018-06-25T00:30:01.687Z,98786.80
2018-06-25T00:32:31.150Z,98793.89
2018-06-25T00:35:00.533Z,98790.16
2018-06-25T00:37:29.961Z,98794.61
2018-06-25T00:39:59.361Z,98789.02
2018-06-25T00:42:28.768Z,98785.70
2018-06-25T00:44:58.168Z,98789.66
2018-06-25T00:47:27.568Z,98782.74
2018-06-25T00:49:57.007Z,98786.29
2018-06-25T00:52:26.396Z,98786.80
2018-06-25T00:54:55.868Z,98790.56
2018-06-25T00:57:25.250Z,98787.83
2018-06-25T00:59:55.779Z,98785.79
2018-06-25T01:02:25.513Z,98788.23
2018-06-25T01:04:54.935Z,98780.73
2018-06-25T01:07:24.331Z,98784.78
2018-06-25T01:09:53.739Z,98781.83
2018-06-25T01:12:23.145Z,98792.29
2018-06-25T01:14:52.551Z,98791.48
2018-06-25T01:17:21.942Z,98791.88
2018-06-25T01:19:51.321Z,98798.48
2018-06-25T01:22:20.688Z,98794.61
2018-06-25T01:24:50.107Z,98794.11
2018-06-25T01:27:19.474Z,98794.42
2018-06-25T01:29:48.880Z,98781.42
2018-06-25T01:32:18.274Z,98784.97
2018-06-25T01:34:47.685Z,98784.37
2018-06-25T01:37:17.084Z,98773.72
2018-06-25T01:39:46.480Z,98768.34
2018-06-25T01:42:15.857Z,98776.67
2018-06-25T01:44:45.280Z,98773.00
2018-06-25T01:47:14.692Z,98772.72
2018-06-25T01:49:44.135Z,98776.55
2018-06-25T01:52:13.511Z,98776.96
2018-06-25T01:54:42.939Z,98779.09
2018-06-25T01:57:12.432Z,98781.42
2018-06-25T01:59:41.858Z,98780.01
2018-06-25T02:02:11.287Z,98775.65
2018-06-25T02:04:40.697Z,98781.61
2018-06-25T02:07:10.184Z,98783.97
2018-06-25T02:09:39.585Z,98787.42
2018-06-25T02:12:08.963Z,98774.73
2018-06-25T02:14:38.379Z,98773.92
2018-06-25T02:17:07.742Z,98773.60
2018-06-25T02:19:37.199Z,98770.06
2018-06-25T02:22:06.679Z,98767.19
2018-06-25T02:24:36.213Z,98764.47
2018-06-25T02:27:05.673Z,98771.28
2018-06-25T02:29:35.142Z,98774.92
2018-06-25T02:32:04.670Z,98774.11
2018-06-25T02:34:34.132Z,98778.38
2018-06-25T02:37:03.617Z,98782.02
2018-06-25T02:39:33.094Z,98781.33
2018-06-25T02:42:02.544Z,98779.70
2018-06-25T02:44:32.025Z,98771.78
2018-06-25T02:47:01.428Z,98774.23
2018-06-25T02:49:30.858Z,98777.38
2018-06-25T02:52:00.256Z,98777.97
2018-06-25T02:54:29.665Z,98789.02
2018-06-25T02:56:59.096Z,98783.66
2018-06-25T02:59:28.583Z,98787.61
2018-06-25T03:01:58.081Z,98791.38
2018-06-25T03:04:27.487Z,98788.42
2018-06-25T03:06:56.883Z,98781.92
2018-06-25T03:09:26.361Z,98776.46
2018-06-25T03:11:55.793Z,98770.65
2018-06-25T03:14:25.236Z,98779.28
2018-06-25T03:16:54.600Z,98781.70
2018-06-25T03:19:24.083Z,98773.10
2018-06-25T03:21:53.420Z,98778.88
2018-06-25T03:24:22.846Z,98780.92
2018-06-25T03:26:52.253Z,98783.65
2018-06-25T03:29:21.667Z,98783.73
2018-06-25T03:31:51.127Z,98777.23
2018-06-25T03:34:20.497Z,98769.64
2018-06-25T03:36:49.930Z,98772.78
2018-06-25T03:39:19.436Z,98775.50
2018-06-25T03:41:48.843Z,98778.88
2018-06-25T03:44:18.266Z,98776.96
2018-06-25T03:46:47.750Z,98780.83
2018-06-25T03:49:17.158Z,98787.47
2018-06-25T03:51:46.615Z,98783.00
2018-06-25T03:54:16.017Z,98787.68
2018-06-25T03:56:45.462Z,98795.50
2018-06-25T03:59:14.928Z,98795.38
2018-06-25T04:01:44.366Z,98804.33
2018-06-25T04:04:14.818Z,98801.59
2018-06-25T04:06:44.511Z,98800.88
2018-06-25T04:09:14.500Z,98803.52
2018-06-25T04:11:44.357Z,98804.23
2018-06-25T04:14:14.009Z,98813.66
2018-06-25T04:16:43.795Z,98818.62
2018-06-25T04:19:13.654Z,98821.89
2018-06-25T04:21:43.391Z,98813.06
2018-06-25T04:24:13.273Z,98810.02
2018-06-25T04:26:43.069Z,98812.25
2018-06-25T04:29:12.956Z,98811.66
2018-06-25T04:31:43.237Z,98808.89
2018-06-25T04:34:13.127Z,98816.70
2018-06-25T04:36:43.376Z,98818.25
2018-06-25T04:39:13.525Z,98819.85
2018-06-25T04:41:43.619Z,98823.11
2018-06-25T04:44:13.571Z,98832.12
2018-06-25T04:46:43.653Z,98835.39
2018-06-25T04:49:14.076Z,98831.45
2018-06-25T04:51:43.587Z,98830.32
2018-06-25T04:54:13.023Z,98829.50
2018-06-25T04:56:42.572Z,98830.00
2018-06-25T04:59:11.976Z,98831.64
2018-06-25T05:01:41.421Z,98828.72
2018-06-25T05:04:10.885Z,98825.67
2018-06-25T05:06:40.256Z,98831.77
2018-06-25T05:09:10.620Z,98838.14
2018-06-25T05:11:40.505Z,98843.09
2018-06-25T05:14:20.839Z,98844.55
2018-06-25T05:16:50.336Z,98851.73
2018-06-25T05:19:19.764Z,98851.73
2018-06-25T05:21:49.172Z,98855.59
2018-06-25T05:24:18.590Z,98865.73
2018-06-25T05:26:47.989Z,98858.33
2018-06-25T05:29:17.556Z,98858.42
2018-06-25T05:31:46.800Z,98865.75
2018-06-25T05:34:16.207Z,98867.79
2018-06-25T05:36:45.629Z,98869.61
2018-06-25T05:39:15.040Z,98865.52
2018-06-25T05:41:44.541Z,98873.98
2018-06-25T05:44:14.274Z,98867.47
2018-06-25T05:46:43.761Z,98881.39
2018-06-25T05:49:13.231Z,98880.08
2018-06-25T05:51:42.867Z,98880.98
2018-06-25T05:54:12.258Z,98882.30
2018-06-25T05:56:41.682Z,98887.27
2018-06-25T05:59:11.101Z,98886.27
2018-06-25T06:01:40.551Z,98887.04
2018-06-25T06:04:09.638Z,98887.45
2018-06-25T06:06:39.085Z,98897.59
2018-06-25T06:09:09.692Z,98903.67
2018-06-25T06:11:39.199Z,98902.14
2018-06-25T06:14:08.627Z,98902.53
2018-06-25T06:16:38.074Z,98897.38
2018-06-25T06:19:07.517Z,98898.95
2018-06-25T06:21:36.959Z,98902.58
2018-06-25T06:24:06.320Z,98902.23
2018-06-25T06:26:35.718Z,98912.30
2018-06-25T06:29:05.118Z,98912.17
2018-06-25T06:31:34.554Z,98916.00
2018-06-25T06:34:04.051Z,98915.50
2018-06-25T06:36:33.473Z,98910.25
2018-06-25T06:39:03.003Z,98906.45
2018-06-25T06:41:32.450Z,98918.62
2018-06-25T06:44:01.605Z,98915.28
2018-06-25T06:46:31.006Z,98912.34
2018-06-25T06:49:00.478Z,98918.76
2018-06-25T06:51:29.889Z,98921.58
2018-06-25T06:53:59.338Z,98922.98
2018-06-25T06:56:28.719Z,98924.72
2018-06-25T06:58:58.172Z,98924.39
2018-06-25T07:01:27.301Z,98924.44
2018-06-25T07:03:57.028Z,98924.85
2018-06-25T07:06:26.470Z,98922.73
2018-06-25T07:08:55.993Z,98927.28
2018-06-25T07:11:25.121Z,98930.64
2018-06-25T07:13:54.526Z,98927.28
2018-06-25T07:16:23.953Z,98930.34
2018-06-25T07:18:53.386Z,98936.66
2018-06-25T07:21:22.811Z,98937.25
2018-06-25T07:23:51.935Z,98942.22
2018-06-25T07:26:24.378Z,98944.98
2018-06-25T07:28:54.787Z,98954.22
2018-06-25T07:31:24.332Z,98951.27
2018-06-25T07:33:53.471Z,98952.90
2018-06-25T07:36:22.966Z,98954.00
2018-06-25T07:38:52.535Z,98955.31
2018-06-25T07:41:21.876Z,98960.19
2018-06-25T07:43:51.280Z,98965.47
2018-06-25T07:46:20.683Z,98960.41
2018-06-25T07:48:50.247Z,98960.91
2018-06-25T07:51:19.709Z,98958.27
2018-06-25T07:53:49.200Z,98962.33
2018-06-25T07:56:18.552Z,98958.59
2018-06-25T07:58:48.537Z,98960.51
2018-06-25T08:01:17.943Z,98960.61
2018-06-25T08:03:47.407Z,98962.84
2018-06-25T08:06:16.839Z,98962.65
2018-06-25T08:08:46.246Z,98963.15
2018-06-25T08:11:15.671Z,98965.06
2018-06-25T08:13:45.126Z,98962.64
2018-06-25T08:16:15.205Z,98967.29
2018-06-25T08:18:44.520Z,98965.37
2018-06-25T08:21:13.913Z,98966.70
2018-06-25T08:23:43.587Z,98974.02
2018-06-25T08:26:13.009Z,98973.89
2018-06-25T08:28:42.420Z,98978.68
2018-06-25T08:31:11.974Z,98979.72
2018-06-25T08:33:41.449Z,98980.95
2018-06-25T08:36:12.321Z,98990.06
2018-06-25T08:38:41.758Z,98982.36
2018-06-25T08:41:11.173Z,98981.98
2018-06-25T08:43:40.615Z,98980.26
2018-06-25T08:46:10.082Z,98987.36
2018-06-25T08:48:39.516Z,98981.48
2018-06-25T08:51:08.920Z,98983.50
2018-06-25T08:53:38.299Z,98987.84
2018-06-25T08:56:07.788Z,98988.46
2018-06-25T08:58:37.247Z,98982.44
2018-06-25T09:01:06.445Z,98987.46
2018-06-25T09:03:35.836Z,98982.32
2018-06-25T09:06:05.259Z,98980.55
2018-06-25T09:08:34.664Z,98979.12
2018-06-25T09:11:04.082Z,98978.35
2018-06-25T09:13:33.519Z,98974.47
2018-06-25T09:16:02.908Z,98977.20
2018-06-25T09:18:32.288Z,98979.54
2018-06-25T09:21:01.485Z,98980.33
2018-06-25T09:23:31.150Z,98971.43
2018-06-25T09:26:00.560Z,98974.59
2018-06-25T09:28:29.986Z,98979.81
2018-06-25T09:30:59.406Z,98978.17
2018-06-25T09:33:28.554Z,98981.86
2018-06-25T09:35:57.944Z,98980.94
2018-06-25T09:38:27.360Z,98980.47
2018-06-25T09:40:56.839Z,98984.39
2018-06-25T09:43:26.179Z,98979.42
2018-06-25T09:45:55.682Z,98987.37
2018-06-25T09:48:25.122Z,98984.78
2018-06-25T09:50:54.610Z,98985.13
2018-06-25T09:53:23.977Z,98992.84
2018-06-25T09:55:53.341Z,98994.87
2018-06-25T09:58:22.492Z,98998.30
2018-06-25T10:00:57.042Z,98994.45
2018-06-25T10:03:26.638Z,99000.13
2018-06-25T10:05:55.987Z,98999.89
2018-06-25T10:08:25.413Z,98994.56
2018-06-25T10:10:54.840Z,99002.83
2018-06-25T10:13:24.221Z,99002.19
2018-06-25T10:15:53.689Z,98992.17
2018-06-25T10:18:23.164Z,98990.24
2018-06-25T10:20:52.611Z,98992.11
2018-06-25T10:23:22.001Z,98999.58
2018-06-25T10:25:51.397Z,99000.28
2018-06-25T10:28:20.842Z,98997.75
2018-06-25T10:30:50.242Z,99003.00
2018-06-25T10:33:19.762Z,98992.30
2018-06-25T10:35:49.203Z,98999.82
2018-06-25T10:38:18.654Z,98994.19
2018-06-25T10:40:48.056Z,98986.83
2018-06-25T10:43:17.463Z,98986.48
2018-06-25T10:45:46.915Z,98995.09
2018-06-25T10:48:16.424Z,98990.47
2018-06-25T10:50:45.818Z,98988.84
2018-06-25T10:53:15.201Z,98989.91
2018-06-25T10:55:44.586Z,98989.03
2018-06-25T10:58:14.035Z,98990.19
2018-06-25T11:00:43.413Z,98987.81
2018-06-25T11:03:13.375Z,98994.37
2018-06-25T11:05:42.757Z,98993.67
2018-06-25T11:08:12.259Z,98988.27
2018-06-25T11:10:41.682Z,98991.48
2018-06-25T11:13:11.267Z,98990.09
2018-06-25T11:15:41.569Z,98988.07
2018-06-25T11:18:11.081Z,98982.45
2018-06-25T11:20:40.614Z,98982.59
2018-06-25T11:23:09.988Z,98983.77
2018-06-25T11:25:39.452Z,98987.94
2018-06-25T11:28:08.910Z,98987.22
2018-06-25T11:30:38.374Z,98982.80
2018-06-25T11:33:07.825Z,98996.72
2018-06-25T11:35:37.255Z,98989.36
2018-06-25T11:38:06.942Z,98983.08
2018-06-25T11:40:36.390Z,98980.88
2018-06-25T11:43:05.926Z,98985.73
2018-06-25T11:45:35.352Z,98979.89
2018-06-25T11:48:04.812Z,98990.36
2018-06-25T11:50:33.979Z,98985.84
2018-06-25T11:53:03.378Z,98986.22
2018-06-25T11:55:32.871Z,98990.54
2018-06-25T11:58:02.346Z,98992.75
2018-06-25T12:00:31.484Z,98988.94
2018-06-25T12:03:01.088Z,98993.61
2018-06-25T12:05:30.081Z,98991.78
2018-06-25T12:07:59.463Z,98997.62
2018-06-25T12:10:28.991Z,98997.36
2018-06-25T12:12:58.365Z,98993.27
2018-06-25T12:15:27.770Z,98994.98
2018-06-25T12:17:56.967Z,98992.72
2018-06-25T12:20:26.364Z,98986.77
2018-06-25T12:22:55.552Z,98987.78
2018-06-25T12:25:24.919Z,98987.55
2018-06-25T12:27:54.326Z,98994.58
2018-06-25T12:30:23.705Z,99003.71
2018-06-25T12:32:53.135Z,98995.11
2018-06-25T12:35:22.564Z,98994.15
2018-06-25T12:37:52.085Z,98981.63
2018-06-25T12:40:21.453Z,98993.11
2018-06-25T12:42:50.846Z,98986.63
2018-06-25T12:45:20.377Z,98998.58
2018-06-25T12:47:49.828Z,98992.34
2018-06-25T12:50:19.318Z,98983.80
2018-06-25T12:52:48.750Z,98982.27
2018-06-25T12:55:18.264Z,98994.94
2018-06-25T12:57:47.690Z,98992.23
2018-06-25T13:00:17.058Z,98991.57
2018-06-25T13:02:46.556Z,98993.50
2018-06-25T13:05:15.948Z,98989.64
2018-06-25T13:07:45.383Z,98991.86
2018-06-25T13:10:14.863Z,98996.73
2018-06-25T13:12:44.015Z,98993.66
2018-06-25T13:15:13.452Z,98995.41
2018-06-25T13:17:42.589Z,98994.27
2018-06-25T13:20:11.982Z,98986.54
2018-06-25T13:22:41.432Z,98983.82
2018-06-25T13:25:10.850Z,98992.17
2018-06-25T13:27:40.264Z,98993.97
2018-06-25T13:30:09.412Z,98999.39
2018-06-25T13:32:38.928Z,98998.88
2018-06-25T13:35:08.402Z,98998.45
2018-06-25T13:37:37.924Z,98994.05
2018-06-25T13:40:07.453Z,98985.86
2018-06-25T13:42:36.856Z,98985.30
2018-06-25T13:45:06.937Z,98974.66
2018-06-25T13:47:36.089Z,98973.45
2018-06-25T13:50:05.735Z,98979.19
2018-06-25T13:52:35.236Z,98976.36
2018-06-25T13:55:04.819Z,98974.47
2018-06-25T13:57:34.334Z,98968.67
2018-06-25T14:00:03.945Z,98974.70
2018-06-25T14:02:33.354Z,98969.19
2018-06-25T14:05:02.807Z,98961.31
2018-06-25T14:07:32.249Z,98952.95
2018-06-25T14:10:01.881Z,98955.84
2018-06-25T14:12:31.263Z,98966.02
2018-06-25T14:15:00.780Z,98974.02
2018-06-25T14:17:30.302Z,98964.94
2018-06-25T14:19:59.440Z,98965.53
2018-06-25T14:22:28.939Z,98958.16
2018-06-25T14:24:59.341Z,98962.61
2018-06-25T14:27:33.429Z,98966.34
2018-06-25T14:30:03.088Z,98967.16
2018-06-25T14:32:33.427Z,98968.04
2018-06-25T14:35:09.685Z,98976.66
2018-06-25T14:37:39.930Z,98971.24
2018-06-25T14:40:10.163Z,98966.94
2018-06-25T14:42:39.946Z,98952.69
2018-06-25T14:45:10.171Z,98953.73
2018-06-25T14:47:40.429Z,98952.13
2018-06-25T14:50:10.360Z,98942.84
2018-06-25T14:52:40.361Z,98938.45
2018-06-25T14:55:09.800Z,98948.36
2018-06-25T14:57:39.220Z,98946.58
2018-06-25T15:00:08.719Z,98943.25
2018-06-25T15:02:38.143Z,98939.63
2018-06-25T15:05:07.668Z,98941.20
2018-06-25T15:07:37.038Z,98936.72
2018-06-25T15:10:06.502Z,98953.25
2018-06-25T15:12:35.905Z,98943.13
2018-06-25T15:15:05.514Z,98954.03
2018-06-25T15:17:35.066Z,98946.46
2018-06-25T15:20:04.563Z,98945.22
2018-06-25T15:22:33.959Z,98948.45
2018-06-25T15:25:03.096Z,98949.84
2018-06-25T15:27:32.529Z,98953.55
2018-06-25T15:30:02.009Z,98951.08
2018-06-25T15:32:32.424Z,98957.69
2018-06-25T15:35:02.218Z,98957.58
2018-06-25T15:37:31.725Z,98951.02
2018-06-25T15:40:01.205Z,98956.16
2018-06-25T15:42:30.690Z,98955.04
2018-06-25T15:45:00.070Z,98954.67
2018-06-25T15:47:29.485Z,98948.21
2018-06-25T15:49:58.929Z,98950.23
2018-06-25T15:52:28.426Z,98955.10
2018-06-25T15:54:57.863Z,98950.38
2018-06-25T15:57:27.284Z,98950.70
2018-06-25T15:59:56.822Z,98946.30
2018-06-25T16:02:26.103Z,98938.24
2018-06-25T16:04:55.543Z,98927.47
2018-06-25T16:07:24.950Z,98929.99
2018-06-25T16:09:54.401Z,98934.87
2018-06-25T16:12:23.833Z,98929.80
2018-06-25T16:14:53.272Z,98929.64
2018-06-25T16:17:22.796Z,98929.31
2018-06-25T16:19:52.571Z,98920.27
2018-06-25T16:22:22.004Z,98930.86
2018-06-25T16:24:51.472Z,98935.70
2018-06-25T16:27:20.953Z,98937.03
2018-06-25T16:29:50.368Z,98939.91
2018-06-25T16:32:19.873Z,98940.37
2018-06-25T16:34:49.344Z,98941.30
2018-06-25T16:37:18.778Z,98930.86
2018-06-25T16:39:48.193Z,98927.03
2018-06-25T16:42:17.629Z,98931.69
2018-06-25T16:44:47.088Z,98930.86
2018-06-25T16:47:16.648Z,98922.31
2018-06-25T16:49:46.002Z,98924.69
2018-06-25T16:52:15.524Z,98928.86
2018-06-25T16:54:44.982Z,98931.52
2018-06-25T16:57:14.464Z,98930.92
2018-06-25T16:59:43.926Z,98929.55
2018-06-25T17:02:13.378Z,98927.06
2018-06-25T17:04:42.849Z,98924.30
2018-06-25T17:07:12.305Z,98926.69
2018-06-25T17:09:41.781Z,98931.84
2018-06-25T17:12:11.188Z,98937.96
2018-06-25T17:14:40.680Z,98945.00
2018-06-25T17:17:10.166Z,98931.55
2018-06-25T17:19:39.630Z,98926.50
2018-06-25T17:22:09.080Z,98936.39
2018-06-25T17:24:38.510Z,98947.11
2018-06-25T17:27:08.014Z,98951.09
2018-06-25T17:29:37.524Z,98952.15
2018-06-25T17:32:06.935Z,98954.19
2018-06-25T17:34:36.420Z,98958.16
2018-06-25T17:37:05.838Z,98959.63
2018-06-25T17:39:35.323Z,98961.36
2018-06-25T17:42:05.391Z,98955.94
2018-06-25T17:44:34.880Z,98949.80
2018-06-25T17:47:04.364Z,98947.66
2018-06-25T17:49:33.781Z,98950.13
2018-06-25T17:52:03.242Z,98951.88
2018-06-25T17:54:32.705Z,98955.13
2018-06-25T17:57:02.116Z,98946.44
2018-06-25T17:59:31.564Z,98952.52
2018-06-25T18:02:01.535Z,98965.73
2018-06-25T18:04:31.017Z,98971.73
2018-06-25T18:07:00.461Z,98969.98
2018-06-25T18:09:29.864Z,98968.17
2018-06-25T18:11:59.341Z,98980.25
2018-06-25T18:14:28.884Z,98976.33
2018-06-25T18:16:59.064Z,98972.89
2018-06-25T18:19:28.488Z,98973.99
2018-06-25T18:21:57.944Z,98966.67
2018-06-25T18:24:27.682Z,98967.50
2018-06-25T18:26:57.707Z,98965.81
2018-06-25T18:29:27.103Z,98966.33
2018-06-25T18:31:56.623Z,98968.98
2018-06-25T18:34:26.042Z,98970.50
2018-06-25T18:36:55.539Z,98972.31
2018-06-25T18:39:25.075Z,98976.45
2018-06-25T18:41:54.516Z,98974.88
2018-06-25T18:44:23.948Z,98980.91
2018-06-25T18:46:53.441Z,98969.05
2018-06-25T18:49:22.902Z,98969.05
2018-06-25T18:51:52.097Z,98967.98
2018-06-25T18:54:21.562Z,98969.59
2018-06-25T18:56:51.035Z,98978.59
2018-06-25T18:59:20.520Z,98968.65
2018-06-25T19:01:49.869Z,98966.79
2018-06-25T19:04:19.356Z,98970.97
2018-06-25T19:06:48.801Z,98975.81
2018-06-25T19:09:18.304Z,98977.55
2018-06-25T19:11:47.876Z,98982.97
2018-06-25T19:14:17.281Z,98990.66
2018-06-25T19:16:46.749Z,98993.75
2018-06-25T19:19:16.187Z,98994.84
2018-06-25T19:21:45.635Z,98989.89
2018-06-25T19:24:15.073Z,98996.02
2018-06-25T19:26:44.469Z,99002.70
2018-06-25T19:29:13.922Z,98996.11
2018-06-25T19:31:43.333Z,98998.14
2018-06-25T19:34:12.837Z,98998.61
2018-06-25T19:36:42.288Z,99001.49
2018-06-25T19:39:13.421Z,99010.21
2018-06-25T19:41:42.850Z,99009.42
2018-06-25T19:44:12.676Z,99002.70
2018-06-25T19:46:42.180Z,99009.15
2018-06-25T19:49:11.606Z,99020.23
2018-06-25T19:51:41.104Z,99018.30
2018-06-25T19:54:10.613Z,99016.98
2018-06-25T19:56:39.994Z,99023.70
2018-06-25T19:59:09.467Z,99021.36
2018-06-25T20:01:38.882Z,99019.42
2018-06-25T20:04:08.313Z,99029.10
2018-06-25T20:06:37.734Z,99027.16
2018-06-25T20:09:11.165Z,99028.18
2018-06-25T20:11:41.005Z,99027.91
2018-06-25T20:14:10.745Z,99026.59
2018-06-25T20:16:40.234Z,99032.79
2018-06-25T20:19:09.628Z,99028.02
2018-06-25T20:21:39.064Z,99027.62
2018-06-25T20:24:08.588Z,99026.28
2018-06-25T20:26:38.091Z,99025.87
2018-06-25T20:29:07.557Z,99035.95
2018-06-25T20:31:37.009Z,99037.05
2018-06-25T20:34:06.618Z,99044.02
2018-06-25T20:36:36.034Z,99044.14
2018-06-25T20:39:09.606Z,99043.37
2018-06-25T20:41:39.048Z,99045.32
2018-06-25T20:44:08.466Z,99048.53
2018-06-25T20:46:37.908Z,99055.45
2018-06-25T20:49:07.398Z,99053.30
2018-06-25T20:51:36.906Z,99052.48
2018-06-25T20:54:06.300Z,99048.59
2018-06-25T20:56:35.726Z,99050.63
2018-06-25T20:59:05.375Z,99049.30
2018-06-25T21:01:34.892Z,99046.86
2018-06-25T21:04:04.399Z,99048.69
2018-06-25T21:06:33.801Z,99056.56
2018-06-25T21:09:03.335Z,99048.02
2018-06-25T21:11:32.736Z,99056.47
2018-06-25T21:14:02.149Z,99050.95
2018-06-25T21:16:31.610Z,99056.43
2018-06-25T21:19:01.152Z,99053.48
2018-06-25T21:21:30.752Z,99058.86
2018-06-25T21:24:00.218Z,99055.80
2018-06-25T21:26:29.648Z,99059.44
2018-06-25T21:28:59.058Z,99054.29
2018-06-25T21:31:28.498Z,99050.20
2018-06-25T21:33:57.959Z,99055.27
2018-06-25T21:36:27.347Z,99052.02
2018-06-25T21:38:56.783Z,99050.20
2018-06-25T21:41:26.241Z,99047.06
2018-06-25T21:43:55.696Z,99040.22
2018-06-25T21:46:25.158Z,99040.67
2018-06-25T21:48:54.573Z,99038.54
2018-06-25T21:51:24.180Z,99047.86
2018-06-25T21:53:53.616Z,99042.60
2018-06-25T21:56:23.124Z,99045.17
2018-06-25T21:58:52.524Z,99044.48
2018-06-25T22:01:21.935Z,99051.84
2018-06-25T22:03:51.380Z,99043.81
2018-06-25T22:06:20.817Z,99049.53
2018-06-25T22:08:50.246Z,99044.20
2018-06-25T22:11:19.748Z,99049.84
2018-06-25T22:13:49.247Z,99046.57
2018-06-25T22:16:18.671Z,99048.44
2018-06-25T22:18:48.078Z,99042.83
2018-06-25T22:21:17.481Z,99037.56
2018-06-25T22:23:46.870Z,99037.80
2018-06-25T22:26:16.265Z,99039.38
2018-06-25T22:28:45.694Z,99039.81
2018-06-25T22:31:15.084Z,99033.39
2018-06-25T22:33:44.505Z,99036.34
2018-06-25T22:36:13.879Z,99038.60
2018-06-25T22:38:43.242Z,99033.55
2018-06-25T22:41:12.686Z,99033.66
2018-06-25T22:43:42.087Z,99038.92
2018-06-25T22:46:11.527Z,99035.59
2018-06-25T22:48:40.918Z,99035.73
2018-06-25T22:51:10.308Z,99042.31
2018-06-25T22:53:39.725Z,99044.89
2018-06-25T22:56:09.187Z,99043.13
2018-06-25T22:58:38.588Z,99050.66
2018-06-25T23:01:08.025Z,99050.41
2018-06-25T23:03:37.470Z,99048.25
2018-06-25T23:06:06.895Z,99044.45
2018-06-25T23:08:36.228Z,99050.13
2018-06-25T23:11:05.693Z,99051.98
2018-06-25T23:13:35.115Z,99054.48
2018-06-25T23:16:04.553Z,99048.16
2018-06-25T23:18:33.975Z,99049.88
2018-06-25T23:21:03.423Z,99055.87
2018-06-25T23:23:32.869Z,99051.34
2018-06-25T23:26:02.306Z,99047.60
2018-06-25T23:28:31.764Z,99043.10
2018-06-25T23:31:01.240Z,99038.75
2018-06-25T23:33:30.687Z,99031.06
2018-06-25T23:36:00.108Z,99046.80
2018-06-25T23:38:29.542Z,99039.66
2018-06-25T23:40:59.011Z,99039.69
2018-06-25T23:43:28.454Z,99041.04
2018-06-25T23:45:57.895Z,99033.16
2018-06-25T23:48:27.383Z,99038.01
2018-06-25T23:50:56.809Z,99029.39
2018-06-25T23:53:26.329Z,99037.31
2018-06-25T23:55:55.777Z,99028.39
2018-06-25T23:58:25.248Z,99034.27
